sensor_id;sensor_type;location;lat;lon;timestamp;P1;durP1;ratioP1;P2;durP2;ratioP2
39448;SDS011;25151;45.566;9.382;2023-05-07T00:01:38;4.22;;;1.83;;
39448;SDS011;25151;45.566;9.382;2023-05-07T00:04:40;3.15;;;1.75;;
39448;SDS011;25151;45.566;9.382;2023-05-07T00:07:42;6.28;;;2.00;;
39448;SDS011;25151;45.566;9.382;2023-05-07T00:10:43;2.78;;;1.92;;
39448;SDS011;25151;45.566;9.382;2023-05-07T00:13:44;1.95;;;1.73;;
39448;SDS011;25151;45.566;9.382;2023-05-07T00:16:47;5.40;;;1.60;;
39448;SDS011;25151;45.566;9.382;2023-05-07T00:19:48;4.22;;;2.03;;
39448;SDS011;25151;45.566;9.382;2023-05-07T00:22:50;2.53;;;1.90;;
39448;SDS011;25151;45.566;9.382;2023-05-07T00:25:50;2.83;;;2.13;;
39448;SDS011;25151;45.566;9.382;2023-05-07T00:28:52;2.13;;;1.75;;
39448;SDS011;25151;45.566;9.382;2023-05-07T00:31:53;3.08;;;2.05;;
39448;SDS011;25151;45.566;9.382;2023-05-07T00:34:54;4.75;;;1.92;;
39448;SDS011;25151;45.566;9.382;2023-05-07T00:37:56;5.22;;;2.55;;
39448;SDS011;25151;45.566;9.382;2023-05-07T00:40:58;2.58;;;2.10;;
39448;SDS011;25151;45.566;9.382;2023-05-07T00:44:00;3.42;;;1.90;;
39448;SDS011;25151;45.566;9.382;2023-05-07T00:47:03;4.45;;;2.17;;
39448;SDS011;25151;45.566;9.382;2023-05-07T00:50:07;4.20;;;2.05;;
39448;SDS011;25151;45.566;9.382;2023-05-07T00:53:12;3.35;;;1.80;;
39448;SDS011;25151;45.566;9.382;2023-05-07T00:56:15;3.78;;;2.17;;
39448;SDS011;25151;45.566;9.382;2023-05-07T00:59:16;2.97;;;2.00;;
39448;SDS011;25151;45.566;9.382;2023-05-07T01:02:18;5.10;;;1.70;;
39448;SDS011;25151;45.566;9.382;2023-05-07T01:05:19;2.60;;;1.70;;
39448;SDS011;25151;45.566;9.382;2023-05-07T01:08:23;3.20;;;2.22;;
39448;SDS011;25151;45.566;9.382;2023-05-07T01:11:27;2.63;;;2.00;;
39448;SDS011;25151;45.566;9.382;2023-05-07T01:14:29;3.83;;;1.90;;
39448;SDS011;25151;45.566;9.382;2023-05-07T01:17:38;2.80;;;2.17;;
39448;SDS011;25151;45.566;9.382;2023-05-07T01:20:41;3.10;;;1.98;;
39448;SDS011;25151;45.566;9.382;2023-05-07T01:23:42;2.97;;;1.95;;
39448;SDS011;25151;45.566;9.382;2023-05-07T01:26:45;3.50;;;2.10;;
39448;SDS011;25151;45.566;9.382;2023-05-07T01:29:46;3.60;;;1.98;;
39448;SDS011;25151;45.566;9.382;2023-05-07T01:32:56;2.85;;;2.33;;
39448;SDS011;25151;45.566;9.382;2023-05-07T01:36:00;3.40;;;1.90;;
39448;SDS011;25151;45.566;9.382;2023-05-07T01:39:03;4.60;;;2.20;;
39448;SDS011;25151;45.566;9.382;2023-05-07T01:42:06;3.67;;;2.20;;
39448;SDS011;25151;45.566;9.382;2023-05-07T01:45:07;2.78;;;1.88;;
39448;SDS011;25151;45.566;9.382;2023-05-07T01:48:09;2.92;;;1.90;;
39448;SDS011;25151;45.566;9.382;2023-05-07T01:51:12;2.08;;;1.65;;
39448;SDS011;25151;45.566;9.382;2023-05-07T01:54:13;2.95;;;1.98;;
39448;SDS011;25151;45.566;9.382;2023-05-07T01:57:14;3.80;;;2.17;;
39448;SDS011;25151;45.566;9.382;2023-05-07T02:00:15;2.78;;;2.03;;
39448;SDS011;25151;45.566;9.382;2023-05-07T02:03:18;3.25;;;1.67;;
39448;SDS011;25151;45.566;9.382;2023-05-07T02:06:19;3.13;;;2.13;;
39448;SDS011;25151;45.566;9.382;2023-05-07T02:09:20;6.10;;;1.88;;
39448;SDS011;25151;45.566;9.382;2023-05-07T02:12:21;3.65;;;2.08;;
39448;SDS011;25151;45.566;9.382;2023-05-07T02:15:23;2.22;;;1.70;;
39448;SDS011;25151;45.566;9.382;2023-05-07T02:18:25;4.82;;;2.47;;
39448;SDS011;25151;45.566;9.382;2023-05-07T02:21:26;2.22;;;1.70;;
39448;SDS011;25151;45.566;9.382;2023-05-07T02:24:28;4.93;;;2.10;;
39448;SDS011;25151;45.566;9.382;2023-05-07T02:27:30;3.15;;;2.30;;
39448;SDS011;25151;45.566;9.382;2023-05-07T02:30:32;3.13;;;1.90;;
39448;SDS011;25151;45.566;9.382;2023-05-07T02:33:33;2.47;;;1.83;;
39448;SDS011;25151;45.566;9.382;2023-05-07T02:36:37;3.88;;;2.38;;
39448;SDS011;25151;45.566;9.382;2023-05-07T02:39:42;3.78;;;1.95;;
39448;SDS011;25151;45.566;9.382;2023-05-07T02:42:43;3.13;;;1.90;;
39448;SDS011;25151;45.566;9.382;2023-05-07T02:45:45;4.03;;;2.45;;
39448;SDS011;25151;45.566;9.382;2023-05-07T02:48:46;5.07;;;2.35;;
39448;SDS011;25151;45.566;9.382;2023-05-07T02:51:47;3.15;;;2.00;;
39448;SDS011;25151;45.566;9.382;2023-05-07T02:54:49;4.45;;;2.30;;
39448;SDS011;25151;45.566;9.382;2023-05-07T02:57:54;4.32;;;2.30;;
39448;SDS011;25151;45.566;9.382;2023-05-07T03:00:55;5.55;;;2.03;;
39448;SDS011;25151;45.566;9.382;2023-05-07T03:03:57;3.10;;;2.00;;
39448;SDS011;25151;45.566;9.382;2023-05-07T03:06:58;3.38;;;1.95;;
39448;SDS011;25151;45.566;9.382;2023-05-07T03:09:59;3.35;;;2.90;;
39448;SDS011;25151;45.566;9.382;2023-05-07T03:13:03;4.35;;;2.00;;
39448;SDS011;25151;45.566;9.382;2023-05-07T03:16:06;3.08;;;2.03;;
39448;SDS011;25151;45.566;9.382;2023-05-07T03:19:16;3.20;;;2.30;;
39448;SDS011;25151;45.566;9.382;2023-05-07T03:33:26;3.33;;;1.98;;
39448;SDS011;25151;45.566;9.382;2023-05-07T03:36:28;5.93;;;1.80;;
39448;SDS011;25151;45.566;9.382;2023-05-07T03:39:30;3.15;;;1.95;;
39448;SDS011;25151;45.566;9.382;2023-05-07T03:42:32;3.95;;;2.00;;
39448;SDS011;25151;45.566;9.382;2023-05-07T03:45:32;3.70;;;1.80;;
39448;SDS011;25151;45.566;9.382;2023-05-07T03:48:33;3.72;;;2.08;;
39448;SDS011;25151;45.566;9.382;2023-05-07T03:51:34;3.45;;;1.90;;
39448;SDS011;25151;45.566;9.382;2023-05-07T03:54:36;4.00;;;1.67;;
39448;SDS011;25151;45.566;9.382;2023-05-07T03:57:36;5.45;;;1.95;;
39448;SDS011;25151;45.566;9.382;2023-05-07T04:00:37;3.63;;;2.38;;
39448;SDS011;25151;45.566;9.382;2023-05-07T04:03:40;2.97;;;2.05;;
39448;SDS011;25151;45.566;9.382;2023-05-07T04:06:40;5.65;;;1.70;;
39448;SDS011;25151;45.566;9.382;2023-05-07T04:09:41;3.47;;;2.08;;
39448;SDS011;25151;45.566;9.382;2023-05-07T04:12:41;1.85;;;1.55;;
39448;SDS011;25151;45.566;9.382;2023-05-07T04:15:42;2.88;;;1.83;;
39448;SDS011;25151;45.566;9.382;2023-05-07T04:18:42;4.72;;;2.10;;
39448;SDS011;25151;45.566;9.382;2023-05-07T04:21:43;2.65;;;1.90;;
39448;SDS011;25151;45.566;9.382;2023-05-07T04:24:44;2.65;;;2.00;;
39448;SDS011;25151;45.566;9.382;2023-05-07T04:27:44;3.08;;;1.90;;
39448;SDS011;25151;45.566;9.382;2023-05-07T04:30:45;2.40;;;1.77;;
39448;SDS011;25151;45.566;9.382;2023-05-07T04:33:49;3.60;;;2.33;;
39448;SDS011;25151;45.566;9.382;2023-05-07T04:36:50;4.25;;;1.75;;
39448;SDS011;25151;45.566;9.382;2023-05-07T04:39:51;5.35;;;2.20;;
39448;SDS011;25151;45.566;9.382;2023-05-07T04:42:52;2.83;;;2.10;;
39448;SDS011;25151;45.566;9.382;2023-05-07T04:45:53;2.92;;;2.05;;
39448;SDS011;25151;45.566;9.382;2023-05-07T04:48:53;3.10;;;1.75;;
39448;SDS011;25151;45.566;9.382;2023-05-07T04:51:55;2.22;;;1.90;;
39448;SDS011;25151;45.566;9.382;2023-05-07T04:54:56;2.55;;;2.00;;
39448;SDS011;25151;45.566;9.382;2023-05-07T04:57:56;2.92;;;1.95;;
39448;SDS011;25151;45.566;9.382;2023-05-07T05:00:57;3.33;;;2.22;;
39448;SDS011;25151;45.566;9.382;2023-05-07T05:03:59;3.08;;;2.00;;
39448;SDS011;25151;45.566;9.382;2023-05-07T05:07:01;4.43;;;2.10;;
39448;SDS011;25151;45.566;9.382;2023-05-07T05:10:04;4.32;;;1.80;;
39448;SDS011;25151;45.566;9.382;2023-05-07T05:13:05;4.28;;;2.10;;
39448;SDS011;25151;45.566;9.382;2023-05-07T05:16:06;3.40;;;2.25;;
39448;SDS011;25151;45.566;9.382;2023-05-07T05:19:07;2.72;;;2.00;;
39448;SDS011;25151;45.566;9.382;2023-05-07T05:22:08;3.13;;;1.73;;
39448;SDS011;25151;45.566;9.382;2023-05-07T05:25:08;4.82;;;1.60;;
39448;SDS011;25151;45.566;9.382;2023-05-07T05:28:09;4.18;;;1.65;;
39448;SDS011;25151;45.566;9.382;2023-05-07T05:31:10;3.97;;;2.35;;
39448;SDS011;25151;45.566;9.382;2023-05-07T05:34:10;6.45;;;2.05;;
39448;SDS011;25151;45.566;9.382;2023-05-07T05:37:11;3.72;;;1.80;;
39448;SDS011;25151;45.566;9.382;2023-05-07T05:40:12;3.65;;;1.90;;
39448;SDS011;25151;45.566;9.382;2023-05-07T05:43:13;2.60;;;1.75;;
39448;SDS011;25151;45.566;9.382;2023-05-07T05:46:14;3.33;;;1.65;;
39448;SDS011;25151;45.566;9.382;2023-05-07T05:49:15;3.63;;;1.70;;
39448;SDS011;25151;45.566;9.382;2023-05-07T05:52:16;3.30;;;1.70;;
39448;SDS011;25151;45.566;9.382;2023-05-07T05:55:17;2.33;;;1.60;;
39448;SDS011;25151;45.566;9.382;2023-05-07T05:58:18;3.60;;;1.95;;
39448;SDS011;25151;45.566;9.382;2023-05-07T06:01:19;2.90;;;1.65;;
39448;SDS011;25151;45.566;9.382;2023-05-07T06:04:20;6.28;;;2.00;;
39448;SDS011;25151;45.566;9.382;2023-05-07T06:07:20;3.47;;;1.80;;
39448;SDS011;25151;45.566;9.382;2023-05-07T06:10:21;4.20;;;2.00;;
39448;SDS011;25151;45.566;9.382;2023-05-07T06:13:22;4.00;;;1.65;;
39448;SDS011;25151;45.566;9.382;2023-05-07T06:16:24;2.22;;;1.67;;
39448;SDS011;25151;45.566;9.382;2023-05-07T06:19:25;3.03;;;1.60;;
39448;SDS011;25151;45.566;9.382;2023-05-07T06:22:26;3.95;;;1.70;;
39448;SDS011;25151;45.566;9.382;2023-05-07T06:25:27;2.00;;;1.75;;
39448;SDS011;25151;45.566;9.382;2023-05-07T06:28:28;2.92;;;1.80;;
39448;SDS011;25151;45.566;9.382;2023-05-07T06:31:30;5.97;;;2.15;;
39448;SDS011;25151;45.566;9.382;2023-05-07T06:34:32;2.42;;;1.45;;
39448;SDS011;25151;45.566;9.382;2023-05-07T06:37:32;4.45;;;1.70;;
39448;SDS011;25151;45.566;9.382;2023-05-07T06:40:33;2.50;;;1.40;;
39448;SDS011;25151;45.566;9.382;2023-05-07T06:43:36;3.67;;;2.00;;
39448;SDS011;25151;45.566;9.382;2023-05-07T06:46:37;1.60;;;1.30;;
39448;SDS011;25151;45.566;9.382;2023-05-07T06:49:38;4.63;;;1.42;;
39448;SDS011;25151;45.566;9.382;2023-05-07T06:52:38;1.90;;;1.38;;
39448;SDS011;25151;45.566;9.382;2023-05-07T06:55:39;3.40;;;1.70;;
39448;SDS011;25151;45.566;9.382;2023-05-07T06:58:40;3.63;;;1.92;;
39448;SDS011;25151;45.566;9.382;2023-05-07T07:01:42;2.60;;;1.50;;
39448;SDS011;25151;45.566;9.382;2023-05-07T07:04:42;2.33;;;1.40;;
39448;SDS011;25151;45.566;9.382;2023-05-07T07:07:43;2.60;;;1.52;;
39448;SDS011;25151;45.566;9.382;2023-05-07T07:10:43;4.13;;;1.75;;
39448;SDS011;25151;45.566;9.382;2023-05-07T07:13:44;7.15;;;2.20;;
39448;SDS011;25151;45.566;9.382;2023-05-07T07:16:45;7.47;;;1.88;;
39448;SDS011;25151;45.566;9.382;2023-05-07T07:19:46;8.05;;;2.38;;
39448;SDS011;25151;45.566;9.382;2023-05-07T07:22:47;5.65;;;1.95;;
39448;SDS011;25151;45.566;9.382;2023-05-07T07:25:48;6.78;;;2.20;;
39448;SDS011;25151;45.566;9.382;2023-05-07T07:28:48;4.22;;;1.80;;
39448;SDS011;25151;45.566;9.382;2023-05-07T07:31:50;5.20;;;1.90;;
39448;SDS011;25151;45.566;9.382;2023-05-07T07:34:52;5.10;;;3.00;;
39448;SDS011;25151;45.566;9.382;2023-05-07T07:37:53;2.80;;;1.60;;
39448;SDS011;25151;45.566;9.382;2023-05-07T07:40:54;3.05;;;1.80;;
39448;SDS011;25151;45.566;9.382;2023-05-07T07:43:57;5.43;;;1.85;;
39448;SDS011;25151;45.566;9.382;2023-05-07T07:46:59;4.22;;;1.38;;
39448;SDS011;25151;45.566;9.382;2023-05-07T07:50:00;4.35;;;2.25;;
39448;SDS011;25151;45.566;9.382;2023-05-07T07:53:04;5.05;;;2.00;;
39448;SDS011;25151;45.566;9.382;2023-05-07T07:56:05;5.22;;;1.83;;
39448;SDS011;25151;45.566;9.382;2023-05-07T07:59:06;10.30;;;2.20;;
39448;SDS011;25151;45.566;9.382;2023-05-07T08:02:06;6.28;;;1.90;;
39448;SDS011;25151;45.566;9.382;2023-05-07T08:05:07;3.33;;;2.00;;
39448;SDS011;25151;45.566;9.382;2023-05-07T08:08:08;4.63;;;1.90;;
39448;SDS011;25151;45.566;9.382;2023-05-07T08:11:09;3.65;;;1.95;;
39448;SDS011;25151;45.566;9.382;2023-05-07T08:14:11;5.97;;;1.98;;
39448;SDS011;25151;45.566;9.382;2023-05-07T08:17:12;6.20;;;1.90;;
39448;SDS011;25151;45.566;9.382;2023-05-07T08:20:13;7.82;;;2.40;;
39448;SDS011;25151;45.566;9.382;2023-05-07T08:23:14;5.40;;;1.95;;
39448;SDS011;25151;45.566;9.382;2023-05-07T08:26:14;7.15;;;2.05;;
39448;SDS011;25151;45.566;9.382;2023-05-07T08:29:17;8.90;;;2.63;;
39448;SDS011;25151;45.566;9.382;2023-05-07T08:32:18;3.55;;;2.13;;
39448;SDS011;25151;45.566;9.382;2023-05-07T08:35:19;7.82;;;2.80;;
39448;SDS011;25151;45.566;9.382;2023-05-07T08:38:19;6.95;;;2.17;;
39448;SDS011;25151;45.566;9.382;2023-05-07T08:41:20;3.58;;;2.25;;
39448;SDS011;25151;45.566;9.382;2023-05-07T08:44:21;5.22;;;2.03;;
39448;SDS011;25151;45.566;9.382;2023-05-07T08:47:22;8.32;;;2.08;;
39448;SDS011;25151;45.566;9.382;2023-05-07T08:50:27;8.48;;;2.47;;
39448;SDS011;25151;45.566;9.382;2023-05-07T08:53:28;5.40;;;2.60;;
39448;SDS011;25151;45.566;9.382;2023-05-07T08:56:29;9.85;;;2.88;;
39448;SDS011;25151;45.566;9.382;2023-05-07T08:59:30;6.32;;;3.10;;
39448;SDS011;25151;45.566;9.382;2023-05-07T09:02:31;7.45;;;3.28;;
39448;SDS011;25151;45.566;9.382;2023-05-07T09:05:31;8.85;;;3.60;;
39448;SDS011;25151;45.566;9.382;2023-05-07T09:08:32;8.30;;;3.28;;
39448;SDS011;25151;45.566;9.382;2023-05-07T09:11:34;8.02;;;4.05;;
39448;SDS011;25151;45.566;9.382;2023-05-07T09:14:35;10.68;;;3.80;;
39448;SDS011;25151;45.566;9.382;2023-05-07T09:17:35;6.63;;;3.85;;
39448;SDS011;25151;45.566;9.382;2023-05-07T09:20:41;10.48;;;3.88;;
39448;SDS011;25151;45.566;9.382;2023-05-07T09:23:42;9.73;;;3.85;;
39448;SDS011;25151;45.566;9.382;2023-05-07T09:26:43;9.43;;;3.95;;
39448;SDS011;25151;45.566;9.382;2023-05-07T09:29:44;8.63;;;3.72;;
39448;SDS011;25151;45.566;9.382;2023-05-07T09:32:45;6.07;;;3.88;;
39448;SDS011;25151;45.566;9.382;2023-05-07T09:35:46;11.63;;;3.95;;
39448;SDS011;25151;45.566;9.382;2023-05-07T09:38:52;7.22;;;3.92;;
39448;SDS011;25151;45.566;9.382;2023-05-07T09:41:53;8.45;;;4.13;;
39448;SDS011;25151;45.566;9.382;2023-05-07T09:44:55;8.88;;;3.67;;
39448;SDS011;25151;45.566;9.382;2023-05-07T09:47:56;5.72;;;3.33;;
39448;SDS011;25151;45.566;9.382;2023-05-07T09:50:59;6.32;;;3.35;;
39448;SDS011;25151;45.566;9.382;2023-05-07T09:54:02;9.75;;;3.25;;
39448;SDS011;25151;45.566;9.382;2023-05-07T09:57:05;7.50;;;3.60;;
39448;SDS011;25151;45.566;9.382;2023-05-07T10:00:07;5.70;;;3.05;;
39448;SDS011;25151;45.566;9.382;2023-05-07T10:03:09;7.82;;;3.40;;
39448;SDS011;25151;45.566;9.382;2023-05-07T10:06:10;8.80;;;2.97;;
39448;SDS011;25151;45.566;9.382;2023-05-07T10:09:13;6.70;;;3.05;;
39448;SDS011;25151;45.566;9.382;2023-05-07T10:12:15;10.93;;;3.15;;
39448;SDS011;25151;45.566;9.382;2023-05-07T10:15:16;8.43;;;2.72;;
39448;SDS011;25151;45.566;9.382;2023-05-07T10:18:18;11.20;;;3.35;;
39448;SDS011;25151;45.566;9.382;2023-05-07T10:21:23;9.52;;;3.25;;
39448;SDS011;25151;45.566;9.382;2023-05-07T10:24:31;6.82;;;2.80;;
39448;SDS011;25151;45.566;9.382;2023-05-07T10:27:34;6.97;;;2.87;;
39448;SDS011;25151;45.566;9.382;2023-05-07T10:30:39;6.35;;;2.65;;
39448;SDS011;25151;45.566;9.382;2023-05-07T10:33:42;6.90;;;2.95;;
39448;SDS011;25151;45.566;9.382;2023-05-07T10:36:45;11.00;;;2.50;;
39448;SDS011;25151;45.566;9.382;2023-05-07T10:39:46;7.47;;;2.65;;
39448;SDS011;25151;45.566;9.382;2023-05-07T10:42:57;7.00;;;2.33;;
39448;SDS011;25151;45.566;9.382;2023-05-07T10:49:21;8.25;;;2.60;;
39448;SDS011;25151;45.566;9.382;2023-05-07T10:52:22;9.43;;;2.83;;
39448;SDS011;25151;45.566;9.382;2023-05-07T10:55:24;6.28;;;2.33;;
39448;SDS011;25151;45.566;9.382;2023-05-07T10:58:28;9.52;;;2.22;;
39448;SDS011;25151;45.566;9.382;2023-05-07T11:02:02;6.25;;;2.95;;
39448;SDS011;25151;45.566;9.382;2023-05-07T11:05:19;6.40;;;1.98;;
39448;SDS011;25151;45.566;9.382;2023-05-07T11:08:20;9.82;;;2.42;;
39448;SDS011;25151;45.566;9.382;2023-05-07T11:14:46;14.25;;;2.75;;
39448;SDS011;25151;45.566;9.382;2023-05-07T11:17:53;6.28;;;2.80;;
39448;SDS011;25151;45.566;9.382;2023-05-07T11:20:58;10.05;;;3.00;;
39448;SDS011;25151;45.566;9.382;2023-05-07T11:24:00;8.18;;;2.25;;
39448;SDS011;25151;45.566;9.382;2023-05-07T11:27:01;7.35;;;2.67;;
39448;SDS011;25151;45.566;9.382;2023-05-07T11:30:04;6.40;;;2.42;;
39448;SDS011;25151;45.566;9.382;2023-05-07T11:33:05;6.90;;;1.88;;
39448;SDS011;25151;45.566;9.382;2023-05-07T11:36:07;6.05;;;2.10;;
39448;SDS011;25151;45.566;9.382;2023-05-07T11:42:45;9.38;;;3.17;;
39448;SDS011;25151;45.566;9.382;2023-05-07T11:45:46;4.18;;;1.85;;
39448;SDS011;25151;45.566;9.382;2023-05-07T11:48:48;14.10;;;2.90;;
39448;SDS011;25151;45.566;9.382;2023-05-07T11:51:48;7.35;;;2.15;;
39448;SDS011;25151;45.566;9.382;2023-05-07T11:54:52;4.68;;;2.10;;
39448;SDS011;25151;45.566;9.382;2023-05-07T11:57:57;5.90;;;2.05;;
39448;SDS011;25151;45.566;9.382;2023-05-07T12:00:57;6.18;;;2.20;;
39448;SDS011;25151;45.566;9.382;2023-05-07T12:03:58;7.13;;;2.50;;
39448;SDS011;25151;45.566;9.382;2023-05-07T12:07:04;8.38;;;2.97;;
39448;SDS011;25151;45.566;9.382;2023-05-07T12:10:08;5.40;;;2.05;;
39448;SDS011;25151;45.566;9.382;2023-05-07T12:13:18;6.70;;;2.30;;
39448;SDS011;25151;45.566;9.382;2023-05-07T12:16:20;9.27;;;2.03;;
39448;SDS011;25151;45.566;9.382;2023-05-07T12:19:22;7.88;;;2.47;;
39448;SDS011;25151;45.566;9.382;2023-05-07T12:22:23;6.53;;;2.35;;
39448;SDS011;25151;45.566;9.382;2023-05-07T12:25:23;6.57;;;2.17;;
39448;SDS011;25151;45.566;9.382;2023-05-07T12:28:24;5.63;;;2.10;;
39448;SDS011;25151;45.566;9.382;2023-05-07T12:31:25;5.93;;;1.90;;
39448;SDS011;25151;45.566;9.382;2023-05-07T12:34:27;3.97;;;2.47;;
39448;SDS011;25151;45.566;9.382;2023-05-07T12:37:28;4.47;;;2.42;;
39448;SDS011;25151;45.566;9.382;2023-05-07T12:43:56;6.38;;;1.90;;
39448;SDS011;25151;45.566;9.382;2023-05-07T12:46:57;3.97;;;1.70;;
39448;SDS011;25151;45.566;9.382;2023-05-07T12:50:01;9.98;;;2.45;;
39448;SDS011;25151;45.566;9.382;2023-05-07T12:53:03;6.55;;;2.08;;
39448;SDS011;25151;45.566;9.382;2023-05-07T12:56:06;7.35;;;2.20;;
39448;SDS011;25151;45.566;9.382;2023-05-07T12:59:07;7.97;;;2.35;;
39448;SDS011;25151;45.566;9.382;2023-05-07T13:02:08;6.18;;;1.95;;
39448;SDS011;25151;45.566;9.382;2023-05-07T13:05:09;7.03;;;2.83;;
39448;SDS011;25151;45.566;9.382;2023-05-07T13:08:10;6.50;;;2.10;;
39448;SDS011;25151;45.566;9.382;2023-05-07T13:11:11;5.97;;;1.88;;
39448;SDS011;25151;45.566;9.382;2023-05-07T13:14:12;6.40;;;2.58;;
39448;SDS011;25151;45.566;9.382;2023-05-07T13:17:13;5.70;;;2.20;;
39448;SDS011;25151;45.566;9.382;2023-05-07T13:20:14;3.10;;;1.88;;
39448;SDS011;25151;45.566;9.382;2023-05-07T13:23:15;9.60;;;2.45;;
39448;SDS011;25151;45.566;9.382;2023-05-07T13:26:16;5.70;;;1.90;;
39448;SDS011;25151;45.566;9.382;2023-05-07T13:29:16;4.18;;;2.13;;
39448;SDS011;25151;45.566;9.382;2023-05-07T13:32:17;5.45;;;2.33;;
39448;SDS011;25151;45.566;9.382;2023-05-07T13:35:20;5.22;;;1.75;;
39448;SDS011;25151;45.566;9.382;2023-05-07T13:38:21;5.45;;;2.30;;
39448;SDS011;25151;45.566;9.382;2023-05-07T13:41:21;10.50;;;2.17;;
39448;SDS011;25151;45.566;9.382;2023-05-07T13:44:22;7.68;;;2.00;;
39448;SDS011;25151;45.566;9.382;2023-05-07T13:47:22;4.60;;;1.80;;
39448;SDS011;25151;45.566;9.382;2023-05-07T13:50:23;7.40;;;1.85;;
39448;SDS011;25151;45.566;9.382;2023-05-07T13:53:24;3.55;;;1.95;;
39448;SDS011;25151;45.566;9.382;2023-05-07T13:56:24;3.13;;;1.50;;
39448;SDS011;25151;45.566;9.382;2023-05-07T13:59:25;4.00;;;1.70;;
39448;SDS011;25151;45.566;9.382;2023-05-07T14:02:25;5.43;;;1.80;;
39448;SDS011;25151;45.566;9.382;2023-05-07T14:05:26;4.70;;;1.90;;
39448;SDS011;25151;45.566;9.382;2023-05-07T14:08:28;4.28;;;1.90;;
39448;SDS011;25151;45.566;9.382;2023-05-07T14:11:28;4.38;;;1.88;;
39448;SDS011;25151;45.566;9.382;2023-05-07T14:14:29;4.15;;;1.60;;
39448;SDS011;25151;45.566;9.382;2023-05-07T14:17:29;4.35;;;1.60;;
39448;SDS011;25151;45.566;9.382;2023-05-07T14:20:30;4.18;;;1.67;;
39448;SDS011;25151;45.566;9.382;2023-05-07T14:23:31;4.55;;;1.70;;
39448;SDS011;25151;45.566;9.382;2023-05-07T14:26:33;2.95;;;1.60;;
39448;SDS011;25151;45.566;9.382;2023-05-07T14:29:33;3.08;;;1.83;;
39448;SDS011;25151;45.566;9.382;2023-05-07T14:32:35;4.30;;;1.63;;
39448;SDS011;25151;45.566;9.382;2023-05-07T14:35:36;5.47;;;1.83;;
39448;SDS011;25151;45.566;9.382;2023-05-07T14:38:36;2.83;;;1.85;;
39448;SDS011;25151;45.566;9.382;2023-05-07T14:41:37;2.92;;;1.77;;
39448;SDS011;25151;45.566;9.382;2023-05-07T14:44:38;5.57;;;1.70;;
39448;SDS011;25151;45.566;9.382;2023-05-07T14:47:41;3.15;;;1.67;;
39448;SDS011;25151;45.566;9.382;2023-05-07T14:50:43;4.95;;;2.25;;
39448;SDS011;25151;45.566;9.382;2023-05-07T14:53:44;4.68;;;1.80;;
39448;SDS011;25151;45.566;9.382;2023-05-07T14:56:45;4.10;;;2.38;;
39448;SDS011;25151;45.566;9.382;2023-05-07T14:59:46;5.15;;;1.90;;
39448;SDS011;25151;45.566;9.382;2023-05-07T15:02:48;4.03;;;2.03;;
39448;SDS011;25151;45.566;9.382;2023-05-07T15:05:48;4.35;;;2.15;;
39448;SDS011;25151;45.566;9.382;2023-05-07T15:08:51;3.53;;;1.85;;
39448;SDS011;25151;45.566;9.382;2023-05-07T15:11:52;5.38;;;2.15;;
39448;SDS011;25151;45.566;9.382;2023-05-07T15:14:52;4.65;;;2.00;;
39448;SDS011;25151;45.566;9.382;2023-05-07T15:17:53;3.53;;;1.88;;
39448;SDS011;25151;45.566;9.382;2023-05-07T15:20:55;2.28;;;1.55;;
39448;SDS011;25151;45.566;9.382;2023-05-07T15:23:56;4.53;;;2.10;;
39448;SDS011;25151;45.566;9.382;2023-05-07T15:26:56;3.35;;;1.60;;
39448;SDS011;25151;45.566;9.382;2023-05-07T15:30:02;8.23;;;2.10;;
39448;SDS011;25151;45.566;9.382;2023-05-07T15:33:03;4.32;;;1.45;;
39448;SDS011;25151;45.566;9.382;2023-05-07T15:36:04;3.38;;;1.58;;
39448;SDS011;25151;45.566;9.382;2023-05-07T15:39:08;4.78;;;1.60;;
39448;SDS011;25151;45.566;9.382;2023-05-07T15:42:09;3.90;;;1.50;;
39448;SDS011;25151;45.566;9.382;2023-05-07T15:45:10;6.63;;;1.55;;
39448;SDS011;25151;45.566;9.382;2023-05-07T15:48:11;4.00;;;1.40;;
39448;SDS011;25151;45.566;9.382;2023-05-07T15:51:12;3.83;;;1.80;;
39448;SDS011;25151;45.566;9.382;2023-05-07T15:54:13;2.92;;;1.58;;
39448;SDS011;25151;45.566;9.382;2023-05-07T15:57:13;3.63;;;1.77;;
39448;SDS011;25151;45.566;9.382;2023-05-07T16:00:14;3.95;;;1.33;;
39448;SDS011;25151;45.566;9.382;2023-05-07T16:03:16;2.47;;;1.40;;
39448;SDS011;25151;45.566;9.382;2023-05-07T16:06:18;3.33;;;1.77;;
39448;SDS011;25151;45.566;9.382;2023-05-07T16:09:18;4.10;;;1.40;;
39448;SDS011;25151;45.566;9.382;2023-05-07T16:12:19;6.28;;;1.67;;
39448;SDS011;25151;45.566;9.382;2023-05-07T16:15:22;3.92;;;1.50;;
39448;SDS011;25151;45.566;9.382;2023-05-07T16:18:25;3.03;;;1.80;;
39448;SDS011;25151;45.566;9.382;2023-05-07T16:21:26;2.80;;;1.50;;
39448;SDS011;25151;45.566;9.382;2023-05-07T16:24:30;6.25;;;2.08;;
39448;SDS011;25151;45.566;9.382;2023-05-07T16:27:31;4.82;;;2.17;;
39448;SDS011;25151;45.566;9.382;2023-05-07T16:30:32;3.53;;;1.25;;
39448;SDS011;25151;45.566;9.382;2023-05-07T16:33:33;5.22;;;1.52;;
39448;SDS011;25151;45.566;9.382;2023-05-07T16:36:35;2.15;;;1.40;;
39448;SDS011;25151;45.566;9.382;2023-05-07T16:39:35;4.18;;;1.40;;
39448;SDS011;25151;45.566;9.382;2023-05-07T16:42:37;9.80;;;1.45;;
39448;SDS011;25151;45.566;9.382;2023-05-07T16:45:38;5.18;;;1.65;;
39448;SDS011;25151;45.566;9.382;2023-05-07T16:48:39;4.00;;;1.60;;
39448;SDS011;25151;45.566;9.382;2023-05-07T16:51:40;2.85;;;1.38;;
39448;SDS011;25151;45.566;9.382;2023-05-07T16:54:42;2.00;;;1.30;;
39448;SDS011;25151;45.566;9.382;2023-05-07T16:57:43;2.45;;;1.30;;
39448;SDS011;25151;45.566;9.382;2023-05-07T17:00:45;3.15;;;1.40;;
39448;SDS011;25151;45.566;9.382;2023-05-07T17:03:46;2.72;;;1.63;;
39448;SDS011;25151;45.566;9.382;2023-05-07T17:06:46;3.35;;;1.70;;
39448;SDS011;25151;45.566;9.382;2023-05-07T17:09:47;5.18;;;2.20;;
39448;SDS011;25151;45.566;9.382;2023-05-07T17:12:48;3.63;;;1.40;;
39448;SDS011;25151;45.566;9.382;2023-05-07T17:15:49;2.72;;;1.35;;
39448;SDS011;25151;45.566;9.382;2023-05-07T17:18:49;5.00;;;1.63;;
39448;SDS011;25151;45.566;9.382;2023-05-07T17:21:50;3.75;;;1.60;;
39448;SDS011;25151;45.566;9.382;2023-05-07T17:24:51;3.08;;;1.45;;
39448;SDS011;25151;45.566;9.382;2023-05-07T17:27:51;3.65;;;1.52;;
39448;SDS011;25151;45.566;9.382;2023-05-07T17:30:52;5.40;;;1.80;;
39448;SDS011;25151;45.566;9.382;2023-05-07T17:33:53;3.80;;;1.63;;
39448;SDS011;25151;45.566;9.382;2023-05-07T17:36:53;4.28;;;1.75;;
39448;SDS011;25151;45.566;9.382;2023-05-07T17:39:55;4.82;;;1.67;;
39448;SDS011;25151;45.566;9.382;2023-05-07T17:42:55;4.00;;;1.58;;
39448;SDS011;25151;45.566;9.382;2023-05-07T17:45:56;4.18;;;1.35;;
39448;SDS011;25151;45.566;9.382;2023-05-07T17:48:57;2.30;;;1.50;;
39448;SDS011;25151;45.566;9.382;2023-05-07T17:51:57;4.45;;;1.60;;
39448;SDS011;25151;45.566;9.382;2023-05-07T17:54:58;2.78;;;1.50;;
39448;SDS011;25151;45.566;9.382;2023-05-07T17:57:59;9.38;;;1.55;;
39448;SDS011;25151;45.566;9.382;2023-05-07T18:00:59;4.15;;;1.58;;
39448;SDS011;25151;45.566;9.382;2023-05-07T18:04:00;6.05;;;1.52;;
39448;SDS011;25151;45.566;9.382;2023-05-07T18:07:01;9.35;;;1.90;;
39448;SDS011;25151;45.566;9.382;2023-05-07T18:10:02;3.25;;;1.60;;
39448;SDS011;25151;45.566;9.382;2023-05-07T18:13:03;6.00;;;1.50;;
39448;SDS011;25151;45.566;9.382;2023-05-07T18:16:04;6.43;;;1.58;;
39448;SDS011;25151;45.566;9.382;2023-05-07T18:19:05;4.57;;;1.83;;
39448;SDS011;25151;45.566;9.382;2023-05-07T18:22:06;3.50;;;1.33;;
39448;SDS011;25151;45.566;9.382;2023-05-07T18:25:06;5.45;;;1.73;;
39448;SDS011;25151;45.566;9.382;2023-05-07T18:28:08;4.13;;;1.58;;
39448;SDS011;25151;45.566;9.382;2023-05-07T18:31:09;3.78;;;1.48;;
39448;SDS011;25151;45.566;9.382;2023-05-07T18:34:10;3.47;;;1.83;;
39448;SDS011;25151;45.566;9.382;2023-05-07T18:37:11;2.22;;;1.25;;
39448;SDS011;25151;45.566;9.382;2023-05-07T18:40:11;3.95;;;1.52;;